createdAt,value
2022-09-26T00:00:24.997Z,76.90
2022-09-26T00:02:52.000Z,76.70
2022-09-26T00:05:18.933Z,77.00
2022-09-26T00:07:45.851Z,77.00
2022-09-26T00:10:13.491Z,77.10
2022-09-26T00:12:40.328Z,76.90
2022-09-26T00:15:07.463Z,76.60
2022-09-26T00:17:34.285Z,76.80
2022-09-26T00:20:01.381Z,76.90
2022-09-26T00:22:28.625Z,76.90
2022-09-26T00:24:55.477Z,76.80
2022-09-26T00:27:24.658Z,76.90
2022-09-26T00:29:51.751Z,77.00
2022-09-26T00:32:18.715Z,77.30
2022-09-26T00:34:45.805Z,77.20
2022-09-26T00:37:12.635Z,77.40
2022-09-26T00:39:39.584Z,77.40
2022-09-26T00:42:06.584Z,77.50
2022-09-26T00:44:46.974Z,77.60
2022-09-26T00:47:34.245Z,77.70
2022-09-26T00:50:08.847Z,77.80
2022-09-26T00:52:39.930Z,77.70
2022-09-26T00:55:07.592Z,77.70
2022-09-26T00:57:45.748Z,77.50
2022-09-26T01:00:14.955Z,77.70
2022-09-26T01:02:43.445Z,77.70
2022-09-26T01:05:11.059Z,77.70
2022-09-26T01:07:37.869Z,77.70
2022-09-26T01:10:05.972Z,77.80
2022-09-26T01:12:33.251Z,77.90
2022-09-26T01:15:00.235Z,77.80
2022-09-26T01:17:27.061Z,77.80
2022-09-26T01:20:06.272Z,77.70
2022-09-26T01:22:49.741Z,77.60
2022-09-26T01:25:16.638Z,77.60
2022-09-26T01:27:51.268Z,77.90
2022-09-26T01:30:26.833Z,78.00
2022-09-26T01:33:02.855Z,78.10
2022-09-26T01:35:29.934Z,78.10
2022-09-26T01:38:15.633Z,78.10
2022-09-26T01:40:44.235Z,78.20
2022-09-26T01:43:11.849Z,78.00
2022-09-26T01:45:57.731Z,78.20
2022-09-26T01:48:25.519Z,78.20
2022-09-26T01:50:53.595Z,78.30
2022-09-26T01:53:39.267Z,78.10
2022-09-26T01:56:12.959Z,78.10
2022-09-26T01:58:41.856Z,78.40
2022-09-26T02:01:11.791Z,78.50
2022-09-26T02:03:40.856Z,78.60
2022-09-26T02:06:12.116Z,78.70
2022-09-26T02:08:49.646Z,78.70
2022-09-26T02:11:17.388Z,79.00
2022-09-26T02:14:07.913Z,79.00
2022-09-26T02:16:47.245Z,79.10
2022-09-26T02:19:34.090Z,79.10
2022-09-26T02:22:01.178Z,79.10
2022-09-26T02:24:28.219Z,79.60
2022-09-26T02:26:55.242Z,80.00
2022-09-26T02:29:30.691Z,80.10
2022-09-26T02:31:58.814Z,79.80
2022-09-26T02:34:25.837Z,79.60
2022-09-26T02:36:53.856Z,79.60
2022-09-26T02:39:20.845Z,79.50
2022-09-26T02:41:47.978Z,79.40
2022-09-26T02:44:19.981Z,79.30
2022-09-26T02:46:46.971Z,79.50
2022-09-26T02:49:23.040Z,79.60
2022-09-26T02:51:50.296Z,79.80
2022-09-26T02:54:36.390Z,80.10
2022-09-26T02:57:06.261Z,79.90
2022-09-26T02:59:38.783Z,80.00
2022-09-26T03:02:18.347Z,80.20
2022-09-26T03:04:45.238Z,80.30
2022-09-26T03:07:13.084Z,80.60
2022-09-26T03:09:40.127Z,80.40
2022-09-26T03:12:07.102Z,80.20
2022-09-26T03:14:39.173Z,80.30
2022-09-26T03:17:07.959Z,80.30
2022-09-26T03:19:34.847Z,80.10
2022-09-26T03:22:02.727Z,80.20
2022-09-26T03:24:31.720Z,79.90
2022-09-26T03:26:59.036Z,79.80
2022-09-26T03:29:26.055Z,79.70
2022-09-26T03:31:56.326Z,79.70
2022-09-26T03:34:23.240Z,79.90
2022-09-26T03:36:50.147Z,80.10
2022-09-26T03:39:17.031Z,80.00
2022-09-26T03:41:44.190Z,80.30
2022-09-26T03:44:12.373Z,80.30
2022-09-26T03:46:40.278Z,80.60
2022-09-26T03:49:07.306Z,80.50
2022-09-26T03:51:34.926Z,80.40
2022-09-26T03:54:02.068Z,80.20
2022-09-26T03:56:28.928Z,80.20
2022-09-26T03:58:55.809Z,80.30
2022-09-26T04:01:22.944Z,80.30
2022-09-26T04:03:51.214Z,80.60
2022-09-26T04:06:20.605Z,80.70
2022-09-26T04:08:48.989Z,80.70
2022-09-26T04:11:16.581Z,80.70
2022-09-26T04:13:51.751Z,80.60
2022-09-26T04:16:24.398Z,80.70
2022-09-26T04:18:56.885Z,81.10
2022-09-26T04:21:23.854Z,81.50
2022-09-26T04:23:50.884Z,81.50
2022-09-26T04:26:23.602Z,81.70
2022-09-26T04:28:55.020Z,81.70
2022-09-26T04:31:22.683Z,81.70
2022-09-26T04:33:49.946Z,81.60
2022-09-26T04:36:16.924Z,81.90
2022-09-26T04:38:43.863Z,81.90
2022-09-26T04:41:11.759Z,81.90
2022-09-26T04:43:38.783Z,82.00
2022-09-26T04:46:09.585Z,82.10
2022-09-26T04:48:36.471Z,82.30
2022-09-26T04:51:07.346Z,82.60
2022-09-26T04:53:34.756Z,82.60
2022-09-26T04:56:01.961Z,82.60
2022-09-26T04:58:29.458Z,82.60
2022-09-26T05:00:58.494Z,82.50
2022-09-26T05:03:28.337Z,82.40
2022-09-26T05:05:55.326Z,82.20
2022-09-26T05:08:26.496Z,82.20
2022-09-26T05:10:53.852Z,82.10
2022-09-26T05:13:21.672Z,82.10
2022-09-26T05:15:50.967Z,81.80
2022-09-26T05:18:17.836Z,81.70
2022-09-26T05:20:52.499Z,81.30
2022-09-26T05:23:44.420Z,81.10
2022-09-26T05:26:20.390Z,81.00
2022-09-26T05:28:57.082Z,80.90
2022-09-26T05:31:29.486Z,80.60
2022-09-26T05:33:59.470Z,80.30
2022-09-26T05:36:28.516Z,80.10
2022-09-26T05:38:55.466Z,79.60
2022-09-26T05:41:22.295Z,79.20
2022-09-26T05:43:49.299Z,78.50
2022-09-26T05:46:16.303Z,78.40
2022-09-26T05:48:43.328Z,78.40
2022-09-26T05:51:12.302Z,78.30
2022-09-26T05:53:39.543Z,78.40
2022-09-26T05:56:08.771Z,78.90
2022-09-26T05:58:36.889Z,79.20
2022-09-26T06:01:04.660Z,79.20
2022-09-26T06:03:35.128Z,79.20
2022-09-26T06:06:05.808Z,79.10
2022-09-26T06:08:33.735Z,78.90
2022-09-26T06:11:10.375Z,78.80
2022-09-26T06:13:37.544Z,78.50
2022-09-26T06:16:08.035Z,78.20
2022-09-26T06:18:35.697Z,77.90
2022-09-26T06:21:04.087Z,77.40
2022-09-26T06:23:32.102Z,76.90
2022-09-26T06:25:59.549Z,76.30
2022-09-26T06:28:27.310Z,75.50
2022-09-26T06:30:54.776Z,74.30
2022-09-26T06:33:24.502Z,73.40
2022-09-26T06:36:04.597Z,72.90
2022-09-26T06:38:31.547Z,72.50
2022-09-26T06:40:58.461Z,72.20
2022-09-26T06:43:25.364Z,71.90
2022-09-26T06:45:53.559Z,71.60
2022-09-26T06:48:24.712Z,71.10
2022-09-26T06:50:52.291Z,71.10
2022-09-26T06:53:19.170Z,70.90
2022-09-26T06:55:46.301Z,70.50
2022-09-26T06:58:16.014Z,69.90
2022-09-26T07:00:44.730Z,69.60
2022-09-26T07:03:16.012Z,69.40
2022-09-26T07:05:45.732Z,69.60
2022-09-26T07:08:12.785Z,70.30
2022-09-26T07:10:39.981Z,70.60
2022-09-26T07:13:07.999Z,70.30
2022-09-26T07:15:35.761Z,70.40
2022-09-26T07:18:03.240Z,70.30
2022-09-26T07:20:32.375Z,69.70
2022-09-26T07:23:02.742Z,67.90
2022-09-26T07:25:31.784Z,66.50
2022-09-26T07:27:58.867Z,64.80
2022-09-26T07:30:25.936Z,62.90
2022-09-26T07:32:52.889Z,60.40
2022-09-26T07:35:19.784Z,58.30
2022-09-26T07:37:46.833Z,55.50
2022-09-26T07:40:13.859Z,53.30
2022-09-26T07:42:41.991Z,51.40
2022-09-26T07:45:24.544Z,50.50
2022-09-26T07:48:13.182Z,50.20
2022-09-26T07:50:40.114Z,50.60
2022-09-26T07:53:06.987Z,51.50
2022-09-26T07:55:54.931Z,52.20
2022-09-26T08:00:57.301Z,51.90
2022-09-26T08:03:26.485Z,50.40
2022-09-26T08:05:54.853Z,48.80
2022-09-26T08:08:21.800Z,47.60
2022-09-26T08:10:49.301Z,45.30
2022-09-26T08:13:17.281Z,44.70
2022-09-26T08:15:44.182Z,44.90
2022-09-26T08:18:11.074Z,45.40
2022-09-26T08:20:37.977Z,45.90
2022-09-26T08:23:05.045Z,46.80
2022-09-26T08:25:31.961Z,46.60
2022-09-26T08:27:59.624Z,46.90
2022-09-26T08:30:31.562Z,47.60
2022-09-26T08:32:59.372Z,47.90
2022-09-26T08:35:26.698Z,47.20
2022-09-26T08:37:53.740Z,46.50
2022-09-26T08:40:21.753Z,46.10
2022-09-26T08:43:04.533Z,45.70
2022-09-26T08:46:02.247Z,45.90
2022-09-26T08:48:39.556Z,45.80
2022-09-26T08:51:12.220Z,46.10
2022-09-26T08:53:44.428Z,45.50
2022-09-26T08:56:18.809Z,45.40
2022-09-26T08:58:46.074Z,44.70
2022-09-26T09:01:15.528Z,44.40
2022-09-26T09:03:48.601Z,43.60
2022-09-26T09:06:15.721Z,42.40
2022-09-26T09:08:43.620Z,40.10
2022-09-26T09:11:19.680Z,40.10
2022-09-26T09:13:56.958Z,40.80
2022-09-26T09:16:37.066Z,41.30
2022-09-26T09:19:23.206Z,42.00
2022-09-26T09:22:19.147Z,43.60
2022-09-26T09:24:46.036Z,45.00
2022-09-26T09:30:19.067Z,48.30
2022-09-26T09:32:56.985Z,48.00
2022-09-26T09:35:34.273Z,47.90
2022-09-26T09:38:01.069Z,48.10
2022-09-26T09:40:28.755Z,48.60
2022-09-26T09:43:03.663Z,48.80
2022-09-26T09:45:30.575Z,48.90
2022-09-26T09:47:57.507Z,48.90
2022-09-26T09:50:35.467Z,47.70
2022-09-26T09:53:13.967Z,46.20
2022-09-26T09:55:51.105Z,44.40
2022-09-26T09:58:51.319Z,43.60
2022-09-26T10:01:48.796Z,43.10
2022-09-26T10:04:23.414Z,43.00
2022-09-26T10:06:51.207Z,41.40
2022-09-26T10:09:35.583Z,40.20
2022-09-26T10:12:12.692Z,39.30
2022-09-26T10:14:45.727Z,38.00
2022-09-26T10:17:12.849Z,37.00
2022-09-26T10:19:40.339Z,37.50
2022-09-26T10:22:10.788Z,38.40
2022-09-26T10:24:43.573Z,39.30
2022-09-26T10:27:37.429Z,40.00
2022-09-26T10:30:07.577Z,41.10
2022-09-26T10:32:45.890Z,42.30
2022-09-26T10:35:25.936Z,43.00
2022-09-26T10:37:55.834Z,43.70
2022-09-26T10:40:43.049Z,44.50
2022-09-26T10:43:33.050Z,45.30
2022-09-26T10:46:09.091Z,46.00
2022-09-26T10:48:43.671Z,46.10
2022-09-26T10:51:11.385Z,46.60
2022-09-26T10:53:38.775Z,47.10
2022-09-26T10:56:10.571Z,47.70
2022-09-26T10:58:41.661Z,48.20
2022-09-26T11:01:08.618Z,48.60
2022-09-26T11:03:43.142Z,49.30
2022-09-26T11:06:28.009Z,49.90
2022-09-26T11:08:57.978Z,50.20
2022-09-26T11:11:25.215Z,50.50
2022-09-26T11:14:03.694Z,50.50
2022-09-26T11:16:51.239Z,50.50
2022-09-26T11:19:22.259Z,50.40
2022-09-26T11:21:51.672Z,49.70
2022-09-26T11:24:24.567Z,50.30
2022-09-26T11:26:59.806Z,49.40
2022-09-26T11:29:34.117Z,49.60
2022-09-26T11:32:01.126Z,50.40
2022-09-26T11:34:29.037Z,51.80
2022-09-26T11:37:27.055Z,53.40
2022-09-26T11:40:12.177Z,53.60
2022-09-26T11:42:42.940Z,54.20
2022-09-26T11:45:11.080Z,56.10
2022-09-26T11:47:43.894Z,57.20
2022-09-26T11:50:23.912Z,58.40
2022-09-26T11:52:50.858Z,57.10
2022-09-26T11:55:20.608Z,56.70
2022-09-26T11:58:06.078Z,56.70
2022-09-26T12:00:51.534Z,57.10
2022-09-26T12:03:38.117Z,56.30
2022-09-26T12:06:11.343Z,56.00
2022-09-26T12:09:04.458Z,55.20
2022-09-26T12:11:41.747Z,53.80
2022-09-26T12:14:37.044Z,53.60
2022-09-26T12:17:31.530Z,53.20
2022-09-26T12:20:21.756Z,53.90
2022-09-26T12:22:56.192Z,54.80
2022-09-26T12:25:32.864Z,55.90
2022-09-26T12:28:11.382Z,54.80
2022-09-26T12:30:48.731Z,55.00
2022-09-26T12:33:34.582Z,54.90
2022-09-26T12:36:07.716Z,55.00
2022-09-26T12:38:44.982Z,54.80
2022-09-26T12:41:14.377Z,55.00
2022-09-26T12:44:00.246Z,55.30
2022-09-26T12:46:29.736Z,55.30
2022-09-26T12:49:22.559Z,55.40
2022-09-26T12:51:52.373Z,55.40
2022-09-26T12:54:23.120Z,55.80
2022-09-26T12:56:55.082Z,55.30
2022-09-26T12:59:45.063Z,54.90
2022-09-26T13:02:15.725Z,54.60
2022-09-26T13:04:55.207Z,54.30
2022-09-26T13:07:22.655Z,54.20
2022-09-26T13:09:55.756Z,54.20
2022-09-26T13:12:26.668Z,54.40
2022-09-26T13:14:57.520Z,54.60
2022-09-26T13:17:27.018Z,55.00
2022-09-26T13:19:55.621Z,56.00
2022-09-26T13:22:23.076Z,56.00
2022-09-26T13:25:08.308Z,56.20
2022-09-26T13:27:37.454Z,56.30
2022-09-26T13:30:22.898Z,56.80
2022-09-26T13:32:54.008Z,56.80
2022-09-26T13:35:21.309Z,56.60
2022-09-26T13:37:56.640Z,56.60
2022-09-26T13:40:34.025Z,56.80
2022-09-26T13:43:23.987Z,57.10
2022-09-26T13:45:58.694Z,57.10
2022-09-26T13:48:25.828Z,57.40
2022-09-26T13:54:16.943Z,57.40
2022-09-26T13:56:46.013Z,57.50
2022-09-26T13:59:12.902Z,57.50
2022-09-26T14:01:42.448Z,57.60
2022-09-26T14:04:19.194Z,57.80
2022-09-26T14:07:02.649Z,57.90
2022-09-26T14:09:51.689Z,58.00
2022-09-26T14:12:31.077Z,58.40
2022-09-26T14:15:18.056Z,58.40
2022-09-26T14:17:45.035Z,58.80
2022-09-26T14:20:27.701Z,59.00
2022-09-26T14:22:55.145Z,59.20
2022-09-26T14:25:40.596Z,59.60
2022-09-26T14:28:31.992Z,60.00
2022-09-26T14:31:09.059Z,60.20
2022-09-26T14:33:39.263Z,60.20
2022-09-26T14:36:18.470Z,60.70
2022-09-26T14:38:48.621Z,61.10
2022-09-26T14:41:16.962Z,61.50
2022-09-26T14:43:43.879Z,61.90
2022-09-26T14:46:20.171Z,62.00
2022-09-26T14:48:47.289Z,62.40
2022-09-26T14:51:18.763Z,63.00
2022-09-26T14:53:48.738Z,63.40
2022-09-26T14:56:16.643Z,63.40
2022-09-26T14:58:53.689Z,63.50
2022-09-26T15:01:25.196Z,63.90
2022-09-26T15:03:56.312Z,64.10
2022-09-26T15:06:23.523Z,64.20
2022-09-26T15:08:50.625Z,64.70
2022-09-26T15:11:36.468Z,65.10
2022-09-26T15:14:05.516Z,65.40
2022-09-26T15:16:34.767Z,66.20
2022-09-26T15:19:06.315Z,66.80
2022-09-26T15:21:34.073Z,67.20
2022-09-26T15:24:01.035Z,67.40
2022-09-26T15:26:29.050Z,67.80
2022-09-26T15:28:56.905Z,68.20
2022-09-26T15:31:30.568Z,69.50
2022-09-26T15:34:00.520Z,71.10
2022-09-26T15:36:31.226Z,72.50
2022-09-26T15:38:58.507Z,73.40
2022-09-26T15:41:43.803Z,74.50
2022-09-26T15:44:20.711Z,75.10
2022-09-26T15:46:49.797Z,74.90
2022-09-26T15:49:21.378Z,74.70
2022-09-26T15:51:54.736Z,74.80
2022-09-26T15:54:27.366Z,75.60
2022-09-26T15:56:55.212Z,75.70
2022-09-26T15:59:24.874Z,76.20
2022-09-26T16:01:52.786Z,76.00
2022-09-26T16:04:29.121Z,75.70
2022-09-26T16:07:03.495Z,75.80
2022-09-26T16:09:48.589Z,76.20
2022-09-26T16:12:15.700Z,76.30
2022-09-26T16:14:48.599Z,76.50
2022-09-26T16:17:21.809Z,76.90
2022-09-26T16:19:51.598Z,77.10
2022-09-26T16:22:22.744Z,76.80
2022-09-26T16:24:49.954Z,76.70
2022-09-26T16:27:24.059Z,77.10
2022-09-26T16:29:52.380Z,77.40
2022-09-26T16:32:19.854Z,77.90
2022-09-26T16:34:47.764Z,77.70
2022-09-26T16:37:18.703Z,77.10
2022-09-26T16:40:00.813Z,77.10
2022-09-26T16:42:31.362Z,77.40
2022-09-26T16:44:59.361Z,77.40
2022-09-26T16:47:48.031Z,77.30
2022-09-26T16:50:24.857Z,77.30
2022-09-26T16:52:52.557Z,77.90
2022-09-26T16:55:19.523Z,78.50
2022-09-26T16:57:52.052Z,78.70
2022-09-26T17:00:38.197Z,78.60
2022-09-26T17:03:17.051Z,79.00
2022-09-26T17:05:44.005Z,78.70
2022-09-26T17:08:13.022Z,78.90
2022-09-26T17:10:41.629Z,79.00
2022-09-26T17:13:09.722Z,79.20
2022-09-26T17:15:37.723Z,79.20
2022-09-26T17:18:08.633Z,78.80
2022-09-26T17:20:35.526Z,78.90
2022-09-26T17:23:22.040Z,79.20
2022-09-26T17:25:52.994Z,79.30
2022-09-26T17:28:26.819Z,79.10
2022-09-26T17:30:55.491Z,79.20
2022-09-26T17:33:24.704Z,79.00
2022-09-26T17:35:51.971Z,79.10
2022-09-26T17:38:19.676Z,79.30
2022-09-26T17:40:48.212Z,79.70
2022-09-26T17:43:15.180Z,80.00
2022-09-26T17:45:53.963Z,80.00
2022-09-26T17:48:20.994Z,79.60
2022-09-26T17:50:48.282Z,79.40
2022-09-26T17:53:20.992Z,79.90
2022-09-26T17:55:52.058Z,80.20
2022-09-26T17:58:19.070Z,80.20
2022-09-26T18:00:47.843Z,80.30
2022-09-26T18:03:23.517Z,80.40
2022-09-26T18:05:53.398Z,80.50
2022-09-26T18:08:29.095Z,80.30
2022-09-26T18:10:59.636Z,80.20
2022-09-26T18:13:31.659Z,80.40
2022-09-26T18:16:01.561Z,80.20
2022-09-26T18:18:29.269Z,79.90
2022-09-26T18:20:57.638Z,79.70
2022-09-26T18:23:29.307Z,79.80
2022-09-26T18:25:56.760Z,80.00
2022-09-26T18:28:23.691Z,80.20
2022-09-26T18:30:56.864Z,80.20
2022-09-26T18:33:29.302Z,80.20
2022-09-26T18:35:56.306Z,79.80
2022-09-26T18:38:27.278Z,79.80
2022-09-26T18:41:00.647Z,79.80
2022-09-26T18:43:29.639Z,79.70
2022-09-26T18:45:57.744Z,79.60
2022-09-26T18:48:32.928Z,79.70
2022-09-26T18:50:59.911Z,79.80
2022-09-26T18:53:29.622Z,80.00
2022-09-26T18:56:15.300Z,79.90
2022-09-26T18:58:42.238Z,79.80
2022-09-26T19:01:28.670Z,79.80
2022-09-26T19:03:55.936Z,79.90
2022-09-26T19:06:23.649Z,80.00
2022-09-26T19:08:59.499Z,79.90
2022-09-26T19:11:26.630Z,79.80
2022-09-26T19:13:54.527Z,79.80
2022-09-26T19:16:21.852Z,79.70
2022-09-26T19:18:48.893Z,79.70
2022-09-26T19:21:34.599Z,79.90
2022-09-26T19:24:02.465Z,79.80
2022-09-26T19:26:35.108Z,80.00
2022-09-26T19:29:02.062Z,80.10
2022-09-26T19:31:29.327Z,80.10
2022-09-26T19:33:58.133Z,80.30
2022-09-26T19:36:25.075Z,80.60
2022-09-26T19:38:51.951Z,80.40
2022-09-26T19:41:18.853Z,80.50
2022-09-26T19:43:45.986Z,80.70
2022-09-26T19:46:14.473Z,80.80
2022-09-26T19:48:44.326Z,81.20
2022-09-26T19:51:12.383Z,81.90
2022-09-26T19:53:39.231Z,82.30
2022-09-26T19:56:06.219Z,82.40
2022-09-26T19:58:33.227Z,82.50
2022-09-26T20:01:05.985Z,82.40
2022-09-26T20:03:34.977Z,82.10
2022-09-26T20:06:02.038Z,82.00
2022-09-26T20:08:29.047Z,81.90
2022-09-26T20:10:56.089Z,82.10
2022-09-26T20:13:23.060Z,82.10
2022-09-26T20:15:50.331Z,82.10
2022-09-26T20:18:21.564Z,81.90
2022-09-26T20:20:50.066Z,81.90
2022-09-26T20:23:21.249Z,82.00
2022-09-26T20:25:48.114Z,81.80
2022-09-26T20:28:16.121Z,81.80
2022-09-26T20:30:52.245Z,81.40
2022-09-26T20:33:22.170Z,81.60
2022-09-26T20:36:10.310Z,81.70
2022-09-26T20:38:38.591Z,81.60
2022-09-26T20:41:12.107Z,82.20
2022-09-26T20:43:40.014Z,82.30
2022-09-26T20:46:07.064Z,82.20
2022-09-26T20:48:34.650Z,82.10
2022-09-26T20:51:01.950Z,82.00
2022-09-26T20:53:28.849Z,82.10
2022-09-26T20:55:55.707Z,81.90
2022-09-26T20:58:22.646Z,81.80
2022-09-26T21:00:49.696Z,81.90
2022-09-26T21:03:17.387Z,82.10
2022-09-26T21:05:44.311Z,82.10
2022-09-26T21:08:14.062Z,82.40
2022-09-26T21:10:40.877Z,82.40
2022-09-26T21:13:08.940Z,82.40
2022-09-26T21:15:35.858Z,82.70
2022-09-26T21:18:02.719Z,82.70
2022-09-26T21:20:30.567Z,82.70
2022-09-26T21:22:58.093Z,82.60
2022-09-26T21:25:26.254Z,82.60
2022-09-26T21:27:57.018Z,82.70
2022-09-26T21:30:24.096Z,82.80
2022-09-26T21:32:51.849Z,82.90
2022-09-26T21:35:19.246Z,82.90
2022-09-26T21:37:46.713Z,82.80
2022-09-26T21:40:13.598Z,82.70
2022-09-26T21:42:40.435Z,82.80
2022-09-26T21:45:07.916Z,82.90
2022-09-26T21:47:36.783Z,83.00
2022-09-26T21:50:04.763Z,83.00
2022-09-26T21:52:36.625Z,83.10
2022-09-26T21:55:03.554Z,83.10
2022-09-26T21:57:31.656Z,83.60
2022-09-26T21:59:58.609Z,83.00
2022-09-26T22:02:26.001Z,83.10
2022-09-26T22:04:52.980Z,82.90
2022-09-26T22:07:20.004Z,82.90
2022-09-26T22:09:46.890Z,82.90
2022-09-26T22:12:13.966Z,82.90
2022-09-26T22:14:41.046Z,82.90
2022-09-26T22:17:08.019Z,83.00
2022-09-26T22:19:35.405Z,82.90
2022-09-26T22:22:02.360Z,82.90
2022-09-26T22:24:30.002Z,83.00
2022-09-26T22:26:56.873Z,83.20
2022-09-26T22:29:23.735Z,83.30
2022-09-26T22:31:50.603Z,83.50
2022-09-26T22:34:17.466Z,83.50
2022-09-26T22:36:44.350Z,84.00
2022-09-26T22:39:11.242Z,84.30
2022-09-26T22:41:38.180Z,84.60
2022-09-26T22:44:05.053Z,84.60
2022-09-26T22:46:35.231Z,84.60
2022-09-26T22:49:02.189Z,84.70
2022-09-26T22:51:29.230Z,84.80
2022-09-26T22:53:56.087Z,84.70
2022-09-26T22:56:23.005Z,84.80
2022-09-26T22:58:50.414Z,84.90
2022-09-26T23:01:18.160Z,84.80
2022-09-26T23:03:45.101Z,84.80
2022-09-26T23:06:12.204Z,84.90
2022-09-26T23:08:39.029Z,84.90
2022-09-26T23:11:07.170Z,85.00
2022-09-26T23:13:35.378Z,85.30
2022-09-26T23:16:06.507Z,85.30
2022-09-26T23:18:34.860Z,85.20
2022-09-26T23:21:25.258Z,85.10
2022-09-26T23:23:55.918Z,85.30
2022-09-26T23:26:23.947Z,85.30
2022-09-26T23:28:50.971Z,85.40
2022-09-26T23:31:18.086Z,85.30
2022-09-26T23:33:45.313Z,85.10
2022-09-26T23:36:12.172Z,85.10
2022-09-26T23:38:39.159Z,85.60
2022-09-26T23:41:06.319Z,85.70
2022-09-26T23:43:33.243Z,85.50
2022-09-26T23:46:00.464Z,85.60
2022-09-26T23:48:27.550Z,85.50
2022-09-26T23:50:54.669Z,85.40
2022-09-26T23:53:22.396Z,85.30
2022-09-26T23:55:49.259Z,85.20
2022-09-26T23:58:16.228Z,85.00
